sensor_id;sensor_type;location;lat;lon;timestamp;temperature;humidity
20380;DHT22;10349;48.666;8.948;2023-08-21T00:01:42;23.00;99.90
20380;DHT22;10349;48.666;8.948;2023-08-21T00:04:08;23.00;99.90
20380;DHT22;10349;48.666;8.948;2023-08-21T00:06:33;23.00;99.90
20380;DHT22;10349;48.666;8.948;2023-08-21T00:09:00;23.00;99.90
20380;DHT22;10349;48.666;8.948;2023-08-21T00:11:26;22.80;99.90
20380;DHT22;10349;48.666;8.948;2023-08-21T00:13:52;22.80;99.90
20380;DHT22;10349;48.666;8.948;2023-08-21T00:16:17;22.70;99.90
20380;DHT22;10349;48.666;8.948;2023-08-21T00:18:43;22.70;99.90
20380;DHT22;10349;48.666;8.948;2023-08-21T00:21:09;22.60;99.90
20380;DHT22;10349;48.666;8.948;2023-08-21T00:23:34;22.60;99.90
20380;DHT22;10349;48.666;8.948;2023-08-21T00:26:00;22.50;99.90
20380;DHT22;10349;48.666;8.948;2023-08-21T00:28:26;22.40;99.90
20380;DHT22;10349;48.666;8.948;2023-08-21T00:31:00;22.40;99.90
20380;DHT22;10349;48.666;8.948;2023-08-21T00:33:26;22.50;99.90
20380;DHT22;10349;48.666;8.948;2023-08-21T00:35:53;22.40;99.90
20380;DHT22;10349;48.666;8.948;2023-08-21T00:38:19;22.50;99.90
20380;DHT22;10349;48.666;8.948;2023-08-21T00:40:44;22.50;99.90
20380;DHT22;10349;48.666;8.948;2023-08-21T00:43:10;22.50;99.90
20380;DHT22;10349;48.666;8.948;2023-08-21T00:45:36;22.40;99.90
20380;DHT22;10349;48.666;8.948;2023-08-21T00:48:02;22.40;99.90
20380;DHT22;10349;48.666;8.948;2023-08-21T00:50:28;22.30;99.90
20380;DHT22;10349;48.666;8.948;2023-08-21T00:52:54;22.30;99.90
20380;DHT22;10349;48.666;8.948;2023-08-21T00:55:19;22.20;99.90
20380;DHT22;10349;48.666;8.948;2023-08-21T00:57:46;22.10;99.90
20380;DHT22;10349;48.666;8.948;2023-08-21T01:00:13;22.00;99.90
20380;DHT22;10349;48.666;8.948;2023-08-21T01:02:40;22.00;99.90
20380;DHT22;10349;48.666;8.948;2023-08-21T01:05:08;22.00;99.90
20380;DHT22;10349;48.666;8.948;2023-08-21T01:07:38;22.00;99.90
20380;DHT22;10349;48.666;8.948;2023-08-21T01:10:19;22.00;99.90
20380;DHT22;10349;48.666;8.948;2023-08-21T01:12:49;22.00;99.90
20380;DHT22;10349;48.666;8.948;2023-08-21T01:15:16;22.10;99.90
20380;DHT22;10349;48.666;8.948;2023-08-21T01:17:43;22.00;99.90
20380;DHT22;10349;48.666;8.948;2023-08-21T01:20:11;22.00;99.90
20380;DHT22;10349;48.666;8.948;2023-08-21T01:22:41;22.00;99.90
20380;DHT22;10349;48.666;8.948;2023-08-21T01:25:11;22.00;99.90
20380;DHT22;10349;48.666;8.948;2023-08-21T01:27:41;22.00;99.90
20380;DHT22;10349;48.666;8.948;2023-08-21T01:30:08;22.00;99.90
20380;DHT22;10349;48.666;8.948;2023-08-21T01:32:59;22.00;99.90
20380;DHT22;10349;48.666;8.948;2023-08-21T01:35:25;22.00;99.90
20380;DHT22;10349;48.666;8.948;2023-08-21T01:37:51;21.90;99.90
20380;DHT22;10349;48.666;8.948;2023-08-21T01:40:23;21.90;99.90
20380;DHT22;10349;48.666;8.948;2023-08-21T01:42:49;21.90;99.90
20380;DHT22;10349;48.666;8.948;2023-08-21T01:45:15;21.80;99.90
20380;DHT22;10349;48.666;8.948;2023-08-21T01:47:41;21.70;99.90
20380;DHT22;10349;48.666;8.948;2023-08-21T01:50:08;21.60;99.90
20380;DHT22;10349;48.666;8.948;2023-08-21T01:52:33;21.60;99.90
20380;DHT22;10349;48.666;8.948;2023-08-21T01:54:59;21.60;99.90
20380;DHT22;10349;48.666;8.948;2023-08-21T01:57:25;21.60;99.90
20380;DHT22;10349;48.666;8.948;2023-08-21T01:59:50;21.60;99.90
20380;DHT22;10349;48.666;8.948;2023-08-21T02:02:16;21.60;99.90
20380;DHT22;10349;48.666;8.948;2023-08-21T02:04:42;21.60;99.90
20380;DHT22;10349;48.666;8.948;2023-08-21T02:07:08;21.70;99.90
20380;DHT22;10349;48.666;8.948;2023-08-21T02:09:34;21.60;99.90
20380;DHT22;10349;48.666;8.948;2023-08-21T02:11:59;21.60;99.90
20380;DHT22;10349;48.666;8.948;2023-08-21T02:14:26;21.70;99.90
20380;DHT22;10349;48.666;8.948;2023-08-21T02:16:52;21.60;99.90
20380;DHT22;10349;48.666;8.948;2023-08-21T02:19:18;21.50;99.90
20380;DHT22;10349;48.666;8.948;2023-08-21T02:21:43;21.50;99.90
20380;DHT22;10349;48.666;8.948;2023-08-21T02:24:09;21.50;99.90
20380;DHT22;10349;48.666;8.948;2023-08-21T02:26:35;21.50;99.90
20380;DHT22;10349;48.666;8.948;2023-08-21T02:29:00;21.50;99.90
20380;DHT22;10349;48.666;8.948;2023-08-21T02:31:26;21.40;99.90
20380;DHT22;10349;48.666;8.948;2023-08-21T02:33:51;21.40;99.90
20380;DHT22;10349;48.666;8.948;2023-08-21T02:36:18;21.40;99.90
20380;DHT22;10349;48.666;8.948;2023-08-21T02:38:44;21.40;99.90
20380;DHT22;10349;48.666;8.948;2023-08-21T02:41:09;21.40;99.90
20380;DHT22;10349;48.666;8.948;2023-08-21T02:43:35;21.40;99.90
20380;DHT22;10349;48.666;8.948;2023-08-21T02:46:01;21.30;99.90
20380;DHT22;10349;48.666;8.948;2023-08-21T02:48:26;21.40;99.90
20380;DHT22;10349;48.666;8.948;2023-08-21T02:50:53;21.40;99.90
20380;DHT22;10349;48.666;8.948;2023-08-21T02:53:20;21.40;99.90
20380;DHT22;10349;48.666;8.948;2023-08-21T02:55:46;21.40;99.90
20380;DHT22;10349;48.666;8.948;2023-08-21T02:58:12;21.40;99.90
20380;DHT22;10349;48.666;8.948;2023-08-21T03:00:38;21.30;99.90
20380;DHT22;10349;48.666;8.948;2023-08-21T03:03:04;21.30;99.90
20380;DHT22;10349;48.666;8.948;2023-08-21T03:05:31;21.20;99.90
20380;DHT22;10349;48.666;8.948;2023-08-21T03:07:57;21.10;99.90
20380;DHT22;10349;48.666;8.948;2023-08-21T03:10:22;21.10;99.90
20380;DHT22;10349;48.666;8.948;2023-08-21T03:12:49;21.10;99.90
20380;DHT22;10349;48.666;8.948;2023-08-21T03:15:15;21.00;99.90
20380;DHT22;10349;48.666;8.948;2023-08-21T03:17:41;21.00;99.90
20380;DHT22;10349;48.666;8.948;2023-08-21T03:20:07;21.10;99.90
20380;DHT22;10349;48.666;8.948;2023-08-21T03:22:34;21.10;99.90
20380;DHT22;10349;48.666;8.948;2023-08-21T03:24:59;21.10;99.90
20380;DHT22;10349;48.666;8.948;2023-08-21T03:27:26;21.10;99.90
20380;DHT22;10349;48.666;8.948;2023-08-21T03:29:52;21.10;99.90
20380;DHT22;10349;48.666;8.948;2023-08-21T03:32:18;21.10;99.90
20380;DHT22;10349;48.666;8.948;2023-08-21T03:34:44;21.00;99.90
20380;DHT22;10349;48.666;8.948;2023-08-21T03:37:10;21.00;99.90
20380;DHT22;10349;48.666;8.948;2023-08-21T03:39:36;21.00;99.90
20380;DHT22;10349;48.666;8.948;2023-08-21T03:42:02;20.90;99.90
20380;DHT22;10349;48.666;8.948;2023-08-21T03:44:28;20.90;99.90
20380;DHT22;10349;48.666;8.948;2023-08-21T03:46:53;20.80;99.90
20380;DHT22;10349;48.666;8.948;2023-08-21T03:49:19;20.80;99.90
20380;DHT22;10349;48.666;8.948;2023-08-21T03:51:44;20.70;99.90
20380;DHT22;10349;48.666;8.948;2023-08-21T03:54:10;20.80;99.90
20380;DHT22;10349;48.666;8.948;2023-08-21T03:56:36;20.70;99.90
20380;DHT22;10349;48.666;8.948;2023-08-21T03:59:03;20.70;99.90
20380;DHT22;10349;48.666;8.948;2023-08-21T04:01:29;20.80;99.90
20380;DHT22;10349;48.666;8.948;2023-08-21T04:03:54;20.80;99.90
20380;DHT22;10349;48.666;8.948;2023-08-21T04:06:20;20.80;99.90
20380;DHT22;10349;48.666;8.948;2023-08-21T04:08:47;20.80;99.90
20380;DHT22;10349;48.666;8.948;2023-08-21T04:11:12;20.80;99.90
20380;DHT22;10349;48.666;8.948;2023-08-21T04:13:38;20.80;99.90
20380;DHT22;10349;48.666;8.948;2023-08-21T04:16:04;20.70;99.90
20380;DHT22;10349;48.666;8.948;2023-08-21T04:18:30;20.70;99.90
20380;DHT22;10349;48.666;8.948;2023-08-21T04:20:56;20.70;99.90
20380;DHT22;10349;48.666;8.948;2023-08-21T04:23:21;20.60;99.90
20380;DHT22;10349;48.666;8.948;2023-08-21T04:25:47;20.70;99.90
20380;DHT22;10349;48.666;8.948;2023-08-21T04:28:13;20.70;99.90
20380;DHT22;10349;48.666;8.948;2023-08-21T04:30:42;20.60;99.90
20380;DHT22;10349;48.666;8.948;2023-08-21T04:33:08;20.60;99.90
20380;DHT22;10349;48.666;8.948;2023-08-21T04:35:38;20.50;99.90
20380;DHT22;10349;48.666;8.948;2023-08-21T04:38:04;20.40;99.90
20380;DHT22;10349;48.666;8.948;2023-08-21T04:40:30;20.40;99.90
20380;DHT22;10349;48.666;8.948;2023-08-21T04:42:56;20.40;99.90
20380;DHT22;10349;48.666;8.948;2023-08-21T04:45:22;20.30;99.90
20380;DHT22;10349;48.666;8.948;2023-08-21T04:47:48;20.30;99.90
20380;DHT22;10349;48.666;8.948;2023-08-21T04:50:16;20.30;99.90
20380;DHT22;10349;48.666;8.948;2023-08-21T04:52:42;20.30;99.90
20380;DHT22;10349;48.666;8.948;2023-08-21T04:55:08;20.40;99.90
20380;DHT22;10349;48.666;8.948;2023-08-21T04:57:37;20.40;99.90
20380;DHT22;10349;48.666;8.948;2023-08-21T05:00:06;20.40;99.90
20380;DHT22;10349;48.666;8.948;2023-08-21T05:02:36;20.40;99.90
20380;DHT22;10349;48.666;8.948;2023-08-21T05:05:02;20.50;99.90
20380;DHT22;10349;48.666;8.948;2023-08-21T05:07:28;20.50;99.90
20380;DHT22;10349;48.666;8.948;2023-08-21T05:09:54;20.50;99.90
20380;DHT22;10349;48.666;8.948;2023-08-21T05:12:20;20.50;99.90
20380;DHT22;10349;48.666;8.948;2023-08-21T05:14:47;20.60;99.90
20380;DHT22;10349;48.666;8.948;2023-08-21T05:17:13;20.70;99.90
20380;DHT22;10349;48.666;8.948;2023-08-21T05:19:40;20.60;99.90
20380;DHT22;10349;48.666;8.948;2023-08-21T05:22:05;20.60;99.90
20380;DHT22;10349;48.666;8.948;2023-08-21T05:24:32;20.70;99.90
20380;DHT22;10349;48.666;8.948;2023-08-21T05:27:03;20.70;99.90
20380;DHT22;10349;48.666;8.948;2023-08-21T05:29:30;20.70;99.90
20380;DHT22;10349;48.666;8.948;2023-08-21T05:31:56;20.90;99.90
20380;DHT22;10349;48.666;8.948;2023-08-21T05:34:22;20.90;99.90
20380;DHT22;10349;48.666;8.948;2023-08-21T05:36:48;20.90;99.90
20380;DHT22;10349;48.666;8.948;2023-08-21T05:39:14;21.00;99.90
20380;DHT22;10349;48.666;8.948;2023-08-21T05:41:40;21.10;99.90
20380;DHT22;10349;48.666;8.948;2023-08-21T05:44:05;21.10;99.90
20380;DHT22;10349;48.666;8.948;2023-08-21T05:46:32;21.10;99.90
20380;DHT22;10349;48.666;8.948;2023-08-21T05:48:57;21.10;99.90
20380;DHT22;10349;48.666;8.948;2023-08-21T05:51:23;21.20;99.90
20380;DHT22;10349;48.666;8.948;2023-08-21T05:53:49;21.30;99.90
20380;DHT22;10349;48.666;8.948;2023-08-21T05:56:15;21.40;99.90
20380;DHT22;10349;48.666;8.948;2023-08-21T05:58:41;21.40;99.90
20380;DHT22;10349;48.666;8.948;2023-08-21T06:01:06;21.50;99.90
20380;DHT22;10349;48.666;8.948;2023-08-21T06:03:33;21.60;99.90
20380;DHT22;10349;48.666;8.948;2023-08-21T06:06:17;21.70;99.90
20380;DHT22;10349;48.666;8.948;2023-08-21T06:08:43;21.70;99.90
20380;DHT22;10349;48.666;8.948;2023-08-21T06:11:09;21.90;99.90
20380;DHT22;10349;48.666;8.948;2023-08-21T06:13:34;21.90;99.90
20380;DHT22;10349;48.666;8.948;2023-08-21T06:16:01;21.90;99.90
20380;DHT22;10349;48.666;8.948;2023-08-21T06:18:27;22.00;99.90
20380;DHT22;10349;48.666;8.948;2023-08-21T06:20:55;22.00;99.90
20380;DHT22;10349;48.666;8.948;2023-08-21T06:23:21;22.10;99.90
20380;DHT22;10349;48.666;8.948;2023-08-21T06:25:50;22.10;99.90
20380;DHT22;10349;48.666;8.948;2023-08-21T06:28:17;22.20;99.90
20380;DHT22;10349;48.666;8.948;2023-08-21T06:30:43;22.30;99.90
20380;DHT22;10349;48.666;8.948;2023-08-21T06:33:10;22.40;99.90
20380;DHT22;10349;48.666;8.948;2023-08-21T06:35:38;22.50;99.90
20380;DHT22;10349;48.666;8.948;2023-08-21T06:38:05;22.50;99.90
20380;DHT22;10349;48.666;8.948;2023-08-21T06:40:33;22.60;99.90
20380;DHT22;10349;48.666;8.948;2023-08-21T06:42:59;22.60;99.90
20380;DHT22;10349;48.666;8.948;2023-08-21T06:45:29;22.70;99.90
20380;DHT22;10349;48.666;8.948;2023-08-21T06:47:57;22.70;99.90
20380;DHT22;10349;48.666;8.948;2023-08-21T06:50:23;22.80;99.90
20380;DHT22;10349;48.666;8.948;2023-08-21T06:52:48;22.90;99.90
20380;DHT22;10349;48.666;8.948;2023-08-21T06:55:14;23.10;99.90
20380;DHT22;10349;48.666;8.948;2023-08-21T06:57:40;23.10;99.90
20380;DHT22;10349;48.666;8.948;2023-08-21T07:00:06;23.20;99.90
20380;DHT22;10349;48.666;8.948;2023-08-21T07:02:31;23.20;99.90
20380;DHT22;10349;48.666;8.948;2023-08-21T07:04:57;23.50;99.90
20380;DHT22;10349;48.666;8.948;2023-08-21T07:07:23;23.50;99.90
20380;DHT22;10349;48.666;8.948;2023-08-21T07:09:50;23.60;99.90
20380;DHT22;10349;48.666;8.948;2023-08-21T07:12:15;23.70;99.90
20380;DHT22;10349;48.666;8.948;2023-08-21T07:14:41;23.80;99.90
20380;DHT22;10349;48.666;8.948;2023-08-21T07:17:06;23.80;99.90
20380;DHT22;10349;48.666;8.948;2023-08-21T07:19:33;24.00;99.90
20380;DHT22;10349;48.666;8.948;2023-08-21T07:21:59;24.10;99.90
20380;DHT22;10349;48.666;8.948;2023-08-21T07:24:25;24.10;99.90
20380;DHT22;10349;48.666;8.948;2023-08-21T07:26:50;24.30;99.90
20380;DHT22;10349;48.666;8.948;2023-08-21T07:29:16;24.30;99.90
20380;DHT22;10349;48.666;8.948;2023-08-21T07:31:41;24.50;99.90
20380;DHT22;10349;48.666;8.948;2023-08-21T07:34:07;24.50;99.90
20380;DHT22;10349;48.666;8.948;2023-08-21T07:36:33;24.50;99.90
20380;DHT22;10349;48.666;8.948;2023-08-21T07:38:59;24.60;99.90
20380;DHT22;10349;48.666;8.948;2023-08-21T07:41:25;24.70;99.90
20380;DHT22;10349;48.666;8.948;2023-08-21T07:43:50;24.80;99.90
20380;DHT22;10349;48.666;8.948;2023-08-21T07:46:16;24.90;99.90
20380;DHT22;10349;48.666;8.948;2023-08-21T07:48:44;25.10;99.90
20380;DHT22;10349;48.666;8.948;2023-08-21T07:51:10;25.10;99.90
20380;DHT22;10349;48.666;8.948;2023-08-21T07:53:36;25.10;99.90
20380;DHT22;10349;48.666;8.948;2023-08-21T07:56:03;25.20;99.90
20380;DHT22;10349;48.666;8.948;2023-08-21T07:58:31;25.30;99.90
20380;DHT22;10349;48.666;8.948;2023-08-21T08:00:57;25.40;99.90
20380;DHT22;10349;48.666;8.948;2023-08-21T08:03:23;25.50;99.90
20380;DHT22;10349;48.666;8.948;2023-08-21T08:05:49;25.60;99.90
20380;DHT22;10349;48.666;8.948;2023-08-21T08:08:16;25.80;99.90
20380;DHT22;10349;48.666;8.948;2023-08-21T08:10:42;25.90;99.90
20380;DHT22;10349;48.666;8.948;2023-08-21T08:13:08;26.00;99.90
20380;DHT22;10349;48.666;8.948;2023-08-21T08:15:34;26.10;99.90
20380;DHT22;10349;48.666;8.948;2023-08-21T08:18:04;26.10;99.90
20380;DHT22;10349;48.666;8.948;2023-08-21T08:20:31;26.30;99.90
20380;DHT22;10349;48.666;8.948;2023-08-21T08:22:57;26.40;99.90
20380;DHT22;10349;48.666;8.948;2023-08-21T08:25:22;26.50;99.90
20380;DHT22;10349;48.666;8.948;2023-08-21T08:27:51;26.60;99.90
20380;DHT22;10349;48.666;8.948;2023-08-21T08:30:16;26.70;99.90
20380;DHT22;10349;48.666;8.948;2023-08-21T08:32:42;26.90;99.90
20380;DHT22;10349;48.666;8.948;2023-08-21T08:35:12;27.00;99.90
20380;DHT22;10349;48.666;8.948;2023-08-21T08:37:38;27.10;99.90
20380;DHT22;10349;48.666;8.948;2023-08-21T08:40:05;27.20;99.90
20380;DHT22;10349;48.666;8.948;2023-08-21T08:42:31;27.20;99.90
20380;DHT22;10349;48.666;8.948;2023-08-21T08:44:57;27.20;99.90
20380;DHT22;10349;48.666;8.948;2023-08-21T08:47:26;27.30;99.90
20380;DHT22;10349;48.666;8.948;2023-08-21T08:49:54;27.20;99.90
20380;DHT22;10349;48.666;8.948;2023-08-21T08:52:20;27.20;99.90
20380;DHT22;10349;48.666;8.948;2023-08-21T08:54:46;27.30;99.90
20380;DHT22;10349;48.666;8.948;2023-08-21T08:57:12;27.40;99.90
20380;DHT22;10349;48.666;8.948;2023-08-21T08:59:38;27.40;99.90
20380;DHT22;10349;48.666;8.948;2023-08-21T09:02:03;27.50;99.90
20380;DHT22;10349;48.666;8.948;2023-08-21T09:04:29;27.60;99.90
20380;DHT22;10349;48.666;8.948;2023-08-21T09:07:06;27.60;99.90
20380;DHT22;10349;48.666;8.948;2023-08-21T09:09:45;27.70;99.90
20380;DHT22;10349;48.666;8.948;2023-08-21T09:12:13;27.70;99.90
20380;DHT22;10349;48.666;8.948;2023-08-21T09:14:39;27.80;99.90
20380;DHT22;10349;48.666;8.948;2023-08-21T09:17:06;27.90;99.90
20380;DHT22;10349;48.666;8.948;2023-08-21T09:19:32;27.90;99.90
20380;DHT22;10349;48.666;8.948;2023-08-21T09:21:57;27.90;99.90
20380;DHT22;10349;48.666;8.948;2023-08-21T09:24:23;28.00;99.90
20380;DHT22;10349;48.666;8.948;2023-08-21T09:26:50;28.00;99.90
20380;DHT22;10349;48.666;8.948;2023-08-21T09:29:17;28.00;99.90
20380;DHT22;10349;48.666;8.948;2023-08-21T09:31:43;28.20;99.90
20380;DHT22;10349;48.666;8.948;2023-08-21T09:34:11;28.20;99.90
20380;DHT22;10349;48.666;8.948;2023-08-21T09:36:38;28.30;99.90
20380;DHT22;10349;48.666;8.948;2023-08-21T09:39:05;28.40;99.90
20380;DHT22;10349;48.666;8.948;2023-08-21T09:41:32;28.50;99.90
20380;DHT22;10349;48.666;8.948;2023-08-21T09:43:59;28.50;99.90
20380;DHT22;10349;48.666;8.948;2023-08-21T09:46:26;28.60;99.90
20380;DHT22;10349;48.666;8.948;2023-08-21T09:48:52;28.60;99.90
20380;DHT22;10349;48.666;8.948;2023-08-21T09:51:18;28.70;99.90
20380;DHT22;10349;48.666;8.948;2023-08-21T09:53:44;28.90;99.90
20380;DHT22;10349;48.666;8.948;2023-08-21T09:56:11;29.00;99.90
20380;DHT22;10349;48.666;8.948;2023-08-21T09:58:39;29.00;99.90
20380;DHT22;10349;48.666;8.948;2023-08-21T10:01:07;29.00;99.90
20380;DHT22;10349;48.666;8.948;2023-08-21T10:03:38;29.10;99.90
20380;DHT22;10349;48.666;8.948;2023-08-21T10:06:06;29.30;99.90
20380;DHT22;10349;48.666;8.948;2023-08-21T10:08:40;29.20;99.90
20380;DHT22;10349;48.666;8.948;2023-08-21T10:11:07;29.30;99.90
20380;DHT22;10349;48.666;8.948;2023-08-21T10:13:36;29.40;99.90
20380;DHT22;10349;48.666;8.948;2023-08-21T10:16:05;29.40;99.90
20380;DHT22;10349;48.666;8.948;2023-08-21T10:18:35;29.30;99.90
20380;DHT22;10349;48.666;8.948;2023-08-21T10:21:13;29.30;99.90
20380;DHT22;10349;48.666;8.948;2023-08-21T10:23:39;29.30;99.90
20380;DHT22;10349;48.666;8.948;2023-08-21T10:26:07;29.40;99.90
20380;DHT22;10349;48.666;8.948;2023-08-21T10:28:56;29.50;99.90
20380;DHT22;10349;48.666;8.948;2023-08-21T10:34:03;29.70;99.90
20380;DHT22;10349;48.666;8.948;2023-08-21T10:39:21;30.00;99.90
20380;DHT22;10349;48.666;8.948;2023-08-21T10:44:46;30.10;99.90
20380;DHT22;10349;48.666;8.948;2023-08-21T10:47:23;30.00;99.90
20380;DHT22;10349;48.666;8.948;2023-08-21T10:52:33;29.90;99.90
20380;DHT22;10349;48.666;8.948;2023-08-21T10:55:00;29.70;99.90
20380;DHT22;10349;48.666;8.948;2023-08-21T10:57:28;29.50;99.90
20380;DHT22;10349;48.666;8.948;2023-08-21T10:59:58;29.40;99.90
20380;DHT22;10349;48.666;8.948;2023-08-21T11:02:25;29.30;99.90
20380;DHT22;10349;48.666;8.948;2023-08-21T11:04:53;29.30;99.90
20380;DHT22;10349;48.666;8.948;2023-08-21T11:07:19;29.20;99.90
20380;DHT22;10349;48.666;8.948;2023-08-21T11:09:45;29.20;99.90
20380;DHT22;10349;48.666;8.948;2023-08-21T11:12:15;29.20;99.90
20380;DHT22;10349;48.666;8.948;2023-08-21T11:14:41;29.20;99.90
20380;DHT22;10349;48.666;8.948;2023-08-21T11:17:08;29.20;99.90
20380;DHT22;10349;48.666;8.948;2023-08-21T11:19:35;29.20;99.90
20380;DHT22;10349;48.666;8.948;2023-08-21T11:22:01;29.20;99.90
20380;DHT22;10349;48.666;8.948;2023-08-21T11:24:43;29.20;99.90
20380;DHT22;10349;48.666;8.948;2023-08-21T11:27:10;29.30;99.90
20380;DHT22;10349;48.666;8.948;2023-08-21T11:32:14;29.40;99.90
20380;DHT22;10349;48.666;8.948;2023-08-21T11:35:10;29.50;99.90
20380;DHT22;10349;48.666;8.948;2023-08-21T11:37:44;29.70;99.90
20380;DHT22;10349;48.666;8.948;2023-08-21T11:40:13;29.90;99.90
20380;DHT22;10349;48.666;8.948;2023-08-21T11:42:41;30.00;99.90
20380;DHT22;10349;48.666;8.948;2023-08-21T11:45:07;30.20;99.90
20380;DHT22;10349;48.666;8.948;2023-08-21T11:47:36;30.40;99.90
20380;DHT22;10349;48.666;8.948;2023-08-21T11:50:06;30.50;99.90
20380;DHT22;10349;48.666;8.948;2023-08-21T11:52:33;30.50;99.90
20380;DHT22;10349;48.666;8.948;2023-08-21T11:55:01;30.40;99.90
20380;DHT22;10349;48.666;8.948;2023-08-21T11:57:28;30.30;99.90
20380;DHT22;10349;48.666;8.948;2023-08-21T11:59:55;30.30;99.90
20380;DHT22;10349;48.666;8.948;2023-08-21T12:02:27;30.40;99.90
20380;DHT22;10349;48.666;8.948;2023-08-21T12:05:06;30.40;99.90
20380;DHT22;10349;48.666;8.948;2023-08-21T12:07:33;30.50;99.90
20380;DHT22;10349;48.666;8.948;2023-08-21T12:09:59;30.70;99.90
20380;DHT22;10349;48.666;8.948;2023-08-21T12:12:24;30.60;99.90
20380;DHT22;10349;48.666;8.948;2023-08-21T12:14:50;30.60;99.90
20380;DHT22;10349;48.666;8.948;2023-08-21T12:17:16;30.60;99.90
20380;DHT22;10349;48.666;8.948;2023-08-21T12:19:42;30.70;99.90
20380;DHT22;10349;48.666;8.948;2023-08-21T12:22:08;30.80;99.90
20380;DHT22;10349;48.666;8.948;2023-08-21T12:24:34;31.00;99.90
20380;DHT22;10349;48.666;8.948;2023-08-21T12:27:03;31.10;99.90
20380;DHT22;10349;48.666;8.948;2023-08-21T12:29:29;31.30;99.90
20380;DHT22;10349;48.666;8.948;2023-08-21T12:31:55;31.20;99.90
20380;DHT22;10349;48.666;8.948;2023-08-21T12:34:21;31.10;99.90
20380;DHT22;10349;48.666;8.948;2023-08-21T12:36:47;31.10;99.90
20380;DHT22;10349;48.666;8.948;2023-08-21T12:39:12;31.00;99.90
20380;DHT22;10349;48.666;8.948;2023-08-21T12:41:39;30.90;99.90
20380;DHT22;10349;48.666;8.948;2023-08-21T12:44:05;30.90;99.90
20380;DHT22;10349;48.666;8.948;2023-08-21T12:46:37;30.80;99.90
20380;DHT22;10349;48.666;8.948;2023-08-21T12:49:04;30.90;99.90
20380;DHT22;10349;48.666;8.948;2023-08-21T12:51:30;30.90;99.90
20380;DHT22;10349;48.666;8.948;2023-08-21T12:53:56;31.00;99.90
20380;DHT22;10349;48.666;8.948;2023-08-21T12:56:22;31.00;99.90
20380;DHT22;10349;48.666;8.948;2023-08-21T12:58:48;31.10;99.90
20380;DHT22;10349;48.666;8.948;2023-08-21T13:01:15;31.20;99.90
20380;DHT22;10349;48.666;8.948;2023-08-21T13:03:45;31.40;99.90
20380;DHT22;10349;48.666;8.948;2023-08-21T13:06:12;31.60;99.90
20380;DHT22;10349;48.666;8.948;2023-08-21T13:08:38;31.70;99.90
20380;DHT22;10349;48.666;8.948;2023-08-21T13:11:04;31.70;99.90
20380;DHT22;10349;48.666;8.948;2023-08-21T13:13:33;31.60;99.90
20380;DHT22;10349;48.666;8.948;2023-08-21T13:15:59;31.50;99.90
20380;DHT22;10349;48.666;8.948;2023-08-21T13:18:27;31.50;99.90
20380;DHT22;10349;48.666;8.948;2023-08-21T13:20:56;31.40;99.90
20380;DHT22;10349;48.666;8.948;2023-08-21T13:23:21;31.40;99.90
20380;DHT22;10349;48.666;8.948;2023-08-21T13:25:48;31.40;99.90
20380;DHT22;10349;48.666;8.948;2023-08-21T13:28:14;31.50;99.90
20380;DHT22;10349;48.666;8.948;2023-08-21T13:30:42;31.40;99.90
20380;DHT22;10349;48.666;8.948;2023-08-21T13:33:07;31.40;99.90
20380;DHT22;10349;48.666;8.948;2023-08-21T13:35:33;31.50;99.90
20380;DHT22;10349;48.666;8.948;2023-08-21T13:37:59;31.60;99.90
20380;DHT22;10349;48.666;8.948;2023-08-21T13:40:25;31.50;99.90
20380;DHT22;10349;48.666;8.948;2023-08-21T13:42:50;31.40;99.90
20380;DHT22;10349;48.666;8.948;2023-08-21T13:45:18;31.40;99.90
20380;DHT22;10349;48.666;8.948;2023-08-21T13:47:46;31.20;99.90
20380;DHT22;10349;48.666;8.948;2023-08-21T13:50:13;31.10;99.90
20380;DHT22;10349;48.666;8.948;2023-08-21T13:52:40;31.00;99.90
20380;DHT22;10349;48.666;8.948;2023-08-21T13:55:07;31.00;99.90
20380;DHT22;10349;48.666;8.948;2023-08-21T13:57:33;30.80;99.90
20380;DHT22;10349;48.666;8.948;2023-08-21T13:59:59;30.70;99.90
20380;DHT22;10349;48.666;8.948;2023-08-21T14:02:26;30.50;99.90
20380;DHT22;10349;48.666;8.948;2023-08-21T14:04:52;30.50;99.90
20380;DHT22;10349;48.666;8.948;2023-08-21T14:07:17;30.50;99.90
20380;DHT22;10349;48.666;8.948;2023-08-21T14:09:43;30.50;99.90
20380;DHT22;10349;48.666;8.948;2023-08-21T14:12:09;30.50;99.90
20380;DHT22;10349;48.666;8.948;2023-08-21T14:14:35;30.50;99.90
20380;DHT22;10349;48.666;8.948;2023-08-21T14:17:01;30.60;99.90
20380;DHT22;10349;48.666;8.948;2023-08-21T14:19:27;30.80;99.90
20380;DHT22;10349;48.666;8.948;2023-08-21T14:21:53;31.00;99.90
20380;DHT22;10349;48.666;8.948;2023-08-21T14:24:19;31.10;99.90
20380;DHT22;10349;48.666;8.948;2023-08-21T14:26:45;31.20;99.90
20380;DHT22;10349;48.666;8.948;2023-08-21T14:29:11;31.20;99.90
20380;DHT22;10349;48.666;8.948;2023-08-21T14:31:36;31.20;99.90
20380;DHT22;10349;48.666;8.948;2023-08-21T14:34:02;31.30;99.90
20380;DHT22;10349;48.666;8.948;2023-08-21T14:36:28;31.40;99.90
20380;DHT22;10349;48.666;8.948;2023-08-21T14:38:53;31.40;99.90
20380;DHT22;10349;48.666;8.948;2023-08-21T14:41:19;31.50;99.90
20380;DHT22;10349;48.666;8.948;2023-08-21T14:43:45;31.40;99.90
20380;DHT22;10349;48.666;8.948;2023-08-21T14:46:10;31.40;99.90
20380;DHT22;10349;48.666;8.948;2023-08-21T14:48:36;31.50;99.90
20380;DHT22;10349;48.666;8.948;2023-08-21T14:51:04;31.70;99.90
20380;DHT22;10349;48.666;8.948;2023-08-21T14:53:30;31.80;99.90
20380;DHT22;10349;48.666;8.948;2023-08-21T14:55:56;31.90;99.90
20380;DHT22;10349;48.666;8.948;2023-08-21T14:58:22;31.80;99.90
20380;DHT22;10349;48.666;8.948;2023-08-21T15:00:53;31.70;99.90
20380;DHT22;10349;48.666;8.948;2023-08-21T15:03:20;31.70;99.90
20380;DHT22;10349;48.666;8.948;2023-08-21T15:05:47;31.40;99.90
20380;DHT22;10349;48.666;8.948;2023-08-21T15:08:13;31.40;99.90
20380;DHT22;10349;48.666;8.948;2023-08-21T15:10:38;31.30;99.90
20380;DHT22;10349;48.666;8.948;2023-08-21T15:13:04;31.30;99.90
20380;DHT22;10349;48.666;8.948;2023-08-21T15:15:30;31.30;99.90
20380;DHT22;10349;48.666;8.948;2023-08-21T15:17:56;31.40;99.90
20380;DHT22;10349;48.666;8.948;2023-08-21T15:20:22;31.40;99.90
20380;DHT22;10349;48.666;8.948;2023-08-21T15:22:48;31.50;99.90
20380;DHT22;10349;48.666;8.948;2023-08-21T15:25:16;31.50;99.90
20380;DHT22;10349;48.666;8.948;2023-08-21T15:27:41;31.40;99.90
20380;DHT22;10349;48.666;8.948;2023-08-21T15:30:07;31.40;99.90
20380;DHT22;10349;48.666;8.948;2023-08-21T15:32:34;31.40;99.90
20380;DHT22;10349;48.666;8.948;2023-08-21T15:35:00;31.50;99.90
20380;DHT22;10349;48.666;8.948;2023-08-21T15:37:30;31.60;99.90
20380;DHT22;10349;48.666;8.948;2023-08-21T15:39:58;31.60;99.90
20380;DHT22;10349;48.666;8.948;2023-08-21T15:42:24;31.60;99.90